createdAt,value
2019-04-23T00:01:59.099Z,14.03
2019-04-23T00:12:48.062Z,13.71
2019-04-23T00:24:07.545Z,13.47
2019-04-23T00:35:00.702Z,13.24
2019-04-23T00:45:54.952Z,12.97
2019-04-23T00:57:22.240Z,13.14
2019-04-23T01:08:11.804Z,13.15
2019-04-23T01:19:28.463Z,13.06
2019-04-23T01:30:29.974Z,13.11
2019-04-23T01:41:33.580Z,12.92
2019-04-23T02:14:49.976Z,12.77
2019-04-23T02:59:21.397Z,12.02
2019-04-23T03:10:16.009Z,11.65
2019-04-23T03:33:44.067Z,11.59
2019-04-23T03:43:38.947Z,11.72
2019-04-23T04:17:01.313Z,11.81
2019-04-23T04:28:12.097Z,11.84
2019-04-23T04:39:03.334Z,11.97
2019-04-23T04:50:07.536Z,12.08
2019-04-23T05:01:13.090Z,12.05
2019-04-23T05:23:25.411Z,12.05
2019-04-23T05:34:28.866Z,12.12
2019-04-23T05:45:34.431Z,12.27
2019-04-23T06:07:44.053Z,12.52
2019-04-23T06:18:53.071Z,12.45
2019-04-23T06:29:52.351Z,12.67
2019-04-23T06:41:06.183Z,12.63
2019-04-23T07:03:14.833Z,12.81
2019-04-23T07:14:26.204Z,12.42
2019-04-23T07:25:17.770Z,12.42
2019-04-23T07:36:30.755Z,12.19
2019-04-23T07:47:40.127Z,12.37
2019-04-23T07:58:44.842Z,12.26
2019-04-23T08:09:48.115Z,12.33
2019-04-23T08:42:56.278Z,12.69
2019-04-23T08:54:02.972Z,12.51
2019-04-23T09:05:09.445Z,12.23
2019-04-23T09:16:23.798Z,11.93
2019-04-23T09:27:22.712Z,11.90
2019-04-23T09:38:38.285Z,11.86
2019-04-23T10:00:37.957Z,11.83
2019-04-23T10:11:09.655Z,11.81
2019-04-23T10:22:11.455Z,11.86
2019-04-23T10:33:13.942Z,11.97
2019-04-23T10:44:13.547Z,11.95
2019-04-23T10:55:51.132Z,11.51
2019-04-23T11:06:50.106Z,11.81
2019-04-23T11:17:47.831Z,11.89
2019-04-23T11:29:07.927Z,12.11
2019-04-23T11:40:11.146Z,11.95
2019-04-23T12:02:23.278Z,11.75
2019-04-23T12:13:49.444Z,11.64
2019-04-23T12:24:58.587Z,11.64
2019-04-23T12:35:32.517Z,11.57
2019-04-23T12:46:46.190Z,11.57
2019-04-23T12:58:11.147Z,11.60
2019-04-23T13:09:21.956Z,11.57
2019-04-23T13:20:14.965Z,11.34
2019-04-23T13:31:10.603Z,11.38
2019-04-23T13:42:35.987Z,11.39
2019-04-23T14:15:41.217Z,11.46
2019-04-23T14:37:45.639Z,11.47
2019-04-23T14:48:38.651Z,11.38
2019-04-23T14:59:37.633Z,11.57
2019-04-23T15:21:53.806Z,11.38
2019-04-23T15:33:11.795Z,11.57
2019-04-23T16:05:46.804Z,11.54
2019-04-23T16:17:13.744Z,11.74
2019-04-23T16:28:37.112Z,11.57
2019-04-23T16:39:29.674Z,11.57
2019-04-23T16:50:57.914Z,11.65
2019-04-23T17:01:44.522Z,11.56
2019-04-23T17:12:52.807Z,11.51
2019-04-23T17:23:59.283Z,11.46
2019-04-23T17:35:08.430Z,11.43
2019-04-23T17:46:05.354Z,11.47
2019-04-23T18:08:21.302Z,11.64
2019-04-23T18:19:16.763Z,11.67
2019-04-23T18:41:18.058Z,11.69
2019-04-23T18:52:36.575Z,11.83
2019-04-23T19:03:43.726Z,11.89
2019-04-23T19:25:36.532Z,11.86
2019-04-23T19:47:55.959Z,11.83
2019-04-23T19:58:54.249Z,11.75
2019-04-23T20:20:58.967Z,11.68
2019-04-23T20:43:07.010Z,11.60
2019-04-23T20:54:08.720Z,11.71
2019-04-23T21:05:15.132Z,11.69
2019-04-23T21:16:26.786Z,11.71
2019-04-23T21:38:58.662Z,11.57
2019-04-23T21:49:57.869Z,11.61
2019-04-23T22:00:58.663Z,11.64
2019-04-23T22:23:03.725Z,11.54
2019-04-23T22:45:10.216Z,11.53
2019-04-23T22:56:17.629Z,11.56
2019-04-23T23:07:41.255Z,11.50
2019-04-23T23:29:28.521Z,11.53
2019-04-23T23:41:04.166Z,11.43
2019-04-23T23:51:45.086Z,11.56
